Delta, Utah Weather observations

Data are for observation ending at time listed.
 Day   Time    Ave.   Ave.  Ave.  Vector   Max.   Stn.    Total    Solar   Ave.  
  of    of     Air    Rel.  Wind   Wind    Wind   Baro.  Precip.   Rad.    Soil  
Year   Day     Temp.  Hum.  Speed  Dir.    Gust   Pres.                    Temp. 
2014   (MST)    F      %     mph   deg.    mph     mb.     in.     W/m2     F   
------------------------------------------------------------------------------
 110    5:00   51.8    51    1.3   137      3.4   860.5    0.00       0    55.1
 110    5:10   52.4    50    0.4   196      1.5   860.8    0.00       0    55.8
 110    5:20   52.8    50    0.8   300      2.0   860.9    0.00       0    56.8
 110    5:30   52.9    50    1.6   359      2.9   861.0    0.00       0    57.9
 110    5:40   53.0    50    2.1   131      3.4   860.9    0.00       0    58.8
 110    5:50   53.0    50    2.7   140      4.4   861.0    0.00       0    59.6
 110    6:00   52.4    52    2.9   123      4.8   860.8    0.00       2    60.3
 110    6:10   52.9    51    2.9   132      4.5   860.9    0.00       6    60.9
 110    6:20   53.7    48    3.2   158      5.4   861.0    0.00      12    61.3
 110    6:30   53.2    50    2.9   148      4.8   861.1    0.00      29    61.9
 110    6:40   53.4    50    3.5   153      5.3   861.1    0.00      44    62.3
 110    6:50   53.8    49    2.8   174      5.0   861.2    0.00      68    62.5
 110    7:00   53.8    50    2.9   149      3.9   861.3    0.00     102    62.9
 110    7:10   54.2    50    2.2   171      3.5   861.5    0.00     102    63.5
 110    7:20   55.2    49    1.9   182      3.4   861.6    0.00     113    64.3
 110    7:30   55.8    47    2.1   177      4.2   861.9    0.00     141    65.1
 110    7:40   56.0    50    3.3   321      5.8   862.3    0.00     146    66.3
 110    7:50   54.8    53    3.4   306      6.9   862.5    0.00     229    67.5
 110    8:00   55.0    52    1.7   306      5.3   862.5    0.00     286    68.9
 110    8:10   56.2    49    2.5   326      5.0   862.5    0.00     308    70.7
 110    8:20   56.9    48    1.6   320      3.9   862.5    0.00     349    72.9
 110    8:30   59.0    45    1.3   305      3.6   862.5    0.00     378    75.2
 110    8:40   60.0    43    1.5   236      3.6   862.5    0.00     416    78.0
 110    8:50   60.8    40    1.1   289      3.0   862.5    0.00     323    80.9
 110    9:00   61.6    39    1.4   283      3.3   862.5    0.00     429    83.3
 110    9:10   62.3    37    2.2   277      5.5   862.6    0.00     472    85.6
 110    9:20   63.0    37    1.6   299      4.0   862.6    0.00     471    87.7
 110    9:30   63.8    38    1.9     5      4.5   862.7    0.00     519    89.7
 110    9:40   63.9    38    2.7   305      6.4   862.8    0.00     548    91.9
 110    9:50   63.9    38    3.0   308      5.8   863.0    0.00     535    93.5
 110   10:00   64.2    38    3.5   320      7.8   863.0    0.00     521    94.6
 110   10:10   65.5    34    3.2   309      6.2   862.9    0.00     597    95.3
 110   10:20   66.2    32    3.4   316      7.5   862.9    0.00     541    96.1
 110   10:30   66.6    31    3.9   310      7.9   863.0    0.00     579    96.7
 110   10:40   66.6    32    4.6   306      9.2   863.0    0.00     622    97.4
 110   10:50   67.6    30    3.4   334      8.6   863.0    0.00     661    97.8
 110   11:00   67.5    29    4.3   302      8.4   863.0    0.00     630    98.7
 110   11:10   68.0    29    4.0   295      9.3   863.0    0.00     684    99.3
 110   11:20   68.6    28    4.5   318      9.8   862.9    0.00     673    99.9
 110   11:30   69.4    25    4.9   307      8.1   862.9    0.00     710    100.7
 110   11:40   69.5    25    3.9   290     11.2   862.8    0.00     707    101.6
 110   11:50   70.1    25    3.7   335      9.9   862.8    0.00     698    102.4
 110   12:00   69.7    24    4.0   287     11.1   862.7    0.00     723    103.0
 110   12:10   69.8    24    3.5   259     11.0   862.7    0.00     695    103.3
 110   12:20   70.4    24    4.4   301      7.9   862.6    0.00     639    103.5
 110   12:30   70.8    24    3.6   292      9.7   862.5    0.00     633    103.6
 110   12:40   70.9    24    4.2   292     10.3   862.4    0.00     689    103.6
 110   12:50   70.2    24    3.8   270      7.2   862.4    0.00     707    103.5
 110   13:00   71.1    24    4.2   306     11.7   862.2    0.00     674    103.5
 110   13:10   71.1    24    3.0   252      7.4   862.1    0.00     652    103.5
 110   13:20   71.5    24    3.5   302      7.7   862.0    0.00     686    103.5
 110   13:30   71.9    24    4.1   280     11.7   862.0    0.00     709    103.7
 110   13:40   72.2    23    5.4   294     11.2   861.9    0.00     654    103.8
 110   13:50   71.5    22    4.3   355      9.6   862.0    0.00     636    103.8
 110   14:00   72.4    22    4.5   317      9.6   861.8    0.00     645    103.8
 110   14:10   72.6    21    5.0   304      9.1   861.8    0.00     659    104.0
 110   14:20   73.1    20    4.0   321      7.9   861.8    0.00     637    104.3
 110   14:30   73.2    20    4.8   304      8.8   861.7    0.00     607    104.9
 110   14:40   72.9    20    4.9   302      9.8   861.7    0.00     560    105.2
 110   14:50   72.9    20    4.3   298      8.6   861.6    0.00     567    105.1
 110   15:00   72.8    20    4.6   293     10.3   861.5    0.00     508    104.9
 110   15:10   72.8    19    5.3   307     10.2   861.4    0.00     552    104.5
 110   15:20   72.7    19    4.4   300      9.2   861.4    0.00     507    104.3
 110   15:30   73.1    19    3.5   300      7.2   861.3    0.00     312    104.2
 110   15:40   73.5    19    4.8   300      9.4   861.2    0.00     196    104.1
 110   15:50   73.3    18    5.1   325     10.9   861.2    0.00     326    103.9
 110   16:00   73.1    18    4.4   348     12.3   861.2    0.00     390    103.2
 110   16:10   72.8    18    4.7   333     11.1   861.3    0.00     424    102.1
 110   16:20   72.8    17    5.5   331     13.1   861.3    0.00     248    100.5
 110   16:30   72.8    17    4.1   326     10.7   861.3    0.00     305    99.1
 110   16:40   72.6    17    5.1   340     12.6   861.3    0.00     290    97.9
 110   16:50   72.3    17    5.1   338      9.2   861.3    0.00     301    96.9
 110   17:00   72.1    17    4.3   353      9.9   861.3    0.00     171    96.3
 110   17:10   72.2    17    5.3   346     11.8   861.3    0.00     143    96.2
 110   17:20   71.5    16    5.6   346     10.4   861.4    0.00      63    95.9
 110   17:30   71.8    17    4.3   359      8.8   861.3    0.00      82    95.3
 110   17:40   71.9    17    3.9   347      8.8   861.3    0.00     130    94.8
 110   17:50   71.5    17    4.7   330      9.1   861.4    0.00     158    94.1
 110   18:00   71.1    17    5.2   345      9.7   861.4    0.00     139    93.3
 110   18:10   70.8    18    3.5   340      6.9   861.4    0.00      84    92.3
 110   18:20   70.2    19    5.0   355     11.4   861.4    0.00      44    91.2
 110   18:30   69.9    19    4.0   358      8.6   861.4    0.00      32    90.2
 110   18:40   68.8    20    4.6   357      7.9   861.4    0.00      42    89.2
 110   18:50   68.0    21    3.4   354      6.4   861.5    0.00      17    88.3
 110   19:00   67.2    21    3.2   355      7.7   861.5    0.00       9    86.8
 110   19:10   66.3    22    3.1   353      5.7   861.6    0.00       6    85.0
 110   19:20   65.3    23    3.2   355      6.6   861.7    0.00       1    83.0
 110   19:30   64.2    22    3.5   352      7.0   861.8    0.00       0    81.2
 110   19:40   63.4    23    3.6   351      6.9   861.9    0.00       0    79.3
 110   19:50   62.6    23    3.6   349      6.4   861.9    0.00       0    77.5
 110   20:00   61.9    23    4.5   347     10.0   862.0    0.00       0    75.9
 110   20:10   61.5    23    4.7   350      8.8   862.2    0.00       0    74.4
 110   20:20   60.8    24    4.6   359      8.4   862.4    0.00       0    73.0
 110   20:30   60.7    24    4.5   352      7.7   862.4    0.00       0    71.9
 110   20:40   60.7    25    4.5   354      8.2   862.5    0.00       0    71.1
 110   20:50   60.4    26    4.6     4      9.9   862.7    0.00       0    70.5
 110   21:00   60.6    27    5.9    20     11.9   862.8    0.00       0    70.0
 110   21:10   60.9    26    6.5    26     11.7   862.9    0.00       0    69.8
 110   21:20   60.6    26    6.5    25     12.0   862.9    0.00       0    69.7
 110   21:30   59.6    28    3.9    35      9.9   863.0    0.00       0    69.5
 110   21:40   59.1    29    4.1    23      8.8   863.0    0.00       0    68.9
 110   21:50   58.5    30    4.5    22      9.5   863.1    0.00       0    68.0
 110   22:00   58.3    30    4.5    20     12.3   863.2    0.00       0    67.0
 110   22:10   57.9    29    3.9    14      9.9   863.2    0.00       0    66.1
 110   22:20   57.6    29    4.4    26      9.2   863.2    0.00       0    65.3
 110   22:30   57.5    29    5.4    23     11.8   863.2    0.00       0    64.5
 110   22:40   57.7    27    5.2    22     10.7   863.3    0.00       0    64.1
 110   22:50   57.8    27    4.2    28     10.0   863.4    0.00       0    64.0
 110   23:00   57.6    27    3.2    34      9.1   863.5    0.00       0    64.0
 110   23:10   57.3    27    3.3    20      8.0   863.5    0.00       0    63.9
 110   23:20   56.6    28    3.0   358      8.6   863.5    0.00       0    63.9
 110   23:30   55.7    30    3.1   349      5.1   863.6    0.00       0    63.6
 110   23:40   54.8    31    2.3   345      4.6   863.7    0.00       0    63.1
 110   23:50   54.0    32    2.7   345      4.6   863.7    0.00       0    62.4
 111    0:00   53.3    33    2.9   328      6.6   863.8    0.00       0    61.6
 111    0:10   52.5    33    2.9   347      4.5   863.8    0.00       0    60.7
 111    0:20   52.4    33    2.8   345      4.5   863.8    0.00       0    59.7
 111    0:30   52.1    34    2.5   336      4.4   863.7    0.00       0    58.9
 111    0:40   51.5    34    2.9   334      5.0   863.9    0.00       0    58.0
 111    0:50   51.4    34    3.0   333      6.4   863.9    0.00       0    57.3
 111    1:00   50.8    35    3.1   337      6.0   864.0    0.00       0    56.5
 111    1:10   50.3    37    2.9   339      4.8   864.0    0.00       0    56.0
 111    1:20   49.8    37    3.1   351      6.3   863.9    0.00       0    55.7
 111    1:30   49.4    37    3.7   339      6.1   863.9    0.00       0    55.0
 111    1:40   48.9    38    4.0   345      7.2   863.8    0.00       0    54.4
 111    1:50   48.6    38    3.8   346      6.4   863.8    0.00       0    53.8
 111    2:00   48.8    37    3.1   341      6.4   863.8    0.00       0    53.2
 111    2:10   48.5    37    2.6    26      7.7   863.9    0.00       0    52.6
 111    2:20   48.6    37    0.7    94      2.3   864.0    0.00       0    51.9
 111    2:30   48.5    38    0.3   162      2.6   864.0    0.00       0    51.3
 111    2:40   48.5    39    0.3   294      1.5   864.1    0.00       0    50.7
 111    2:50   48.3    40    0.2   291      1.3   864.1    0.00       0    50.1
 111    3:00   47.6    41    0.6   339      1.8   864.0    0.00       0    49.5
 111    3:10   47.4    42    1.2   336      2.1   864.0    0.00       0    48.8
 111    3:20   47.3    42    0.5   304      2.2   863.9    0.00       0    48.2
 111    3:30   47.3    40    1.6   315      3.0   863.9    0.00       0    47.7
 111    3:40   47.2    40    1.6   306      3.1   863.9    0.00       0    47.4
 111    3:50   47.1    38    2.0   336      3.4   863.9    0.00       0    47.4
 111    4:00   46.6    39    2.3   329      4.1   863.9    0.00       0    47.3
 111    4:10   46.3    40    2.0   333      3.4   863.9    0.00       0    47.2
 111    4:20   45.7    42    2.9   352      4.4   863.9    0.00       0    47.0
 111    4:30   45.0    42    3.3   347      5.3   863.9    0.00       0    46.7
 111    4:40   44.8    41    2.9   345      6.2   863.8    0.00       0    46.3
 111    4:50   44.6    41    2.7   358      4.9   863.9    0.00       0    45.9

Return to Delta, Utah graphs page.


Western Regional Climate Center,wrcc@dri.edu